createdAt,value
2019-02-20T00:00:30.039Z,14.00
2019-02-20T00:03:07.047Z,13.58
2019-02-20T00:05:44.523Z,13.20
2019-02-20T00:08:19.458Z,12.68
2019-02-20T00:10:53.681Z,13.15
2019-02-20T00:13:28.337Z,15.98
2019-02-20T00:16:03.008Z,16.37
2019-02-20T00:18:37.618Z,15.05
2019-02-20T00:21:11.950Z,14.55
2019-02-20T00:23:46.796Z,15.45
2019-02-20T00:26:21.432Z,16.55
2019-02-20T00:31:30.593Z,15.45
2019-02-20T00:39:12.670Z,15.63
2019-02-20T00:44:47.420Z,15.72
2019-02-20T00:50:08.335Z,16.17
2019-02-20T00:52:49.792Z,16.35
2019-02-20T00:55:24.126Z,15.35
2019-02-20T00:57:58.974Z,16.02
2019-02-20T01:00:33.315Z,16.17
2019-02-20T01:03:07.796Z,16.32
2019-02-20T01:05:42.488Z,16.93
2019-02-20T01:08:16.988Z,18.92
2019-02-20T01:10:51.645Z,22.55
2019-02-20T01:15:59.681Z,22.52
2019-02-20T01:18:34.049Z,23.40
2019-02-20T01:21:08.697Z,19.80
2019-02-20T01:23:43.057Z,20.70
2019-02-20T01:26:17.669Z,22.42
2019-02-20T01:28:52.039Z,23.07
2019-02-20T01:31:26.545Z,20.92
2019-02-20T01:34:01.497Z,19.82
2019-02-20T01:36:35.998Z,20.65
2019-02-20T01:39:10.536Z,22.10
2019-02-20T01:41:44.869Z,20.57
2019-02-20T01:44:19.310Z,21.77
2019-02-20T01:46:53.625Z,24.05
2019-02-20T01:52:01.613Z,28.40
2019-02-20T01:57:09.808Z,28.67
2019-02-20T01:59:44.123Z,28.47
2019-02-20T02:02:18.769Z,29.10
2019-02-20T02:04:53.521Z,25.35
2019-02-20T02:07:27.821Z,24.20
2019-02-20T02:10:02.433Z,21.95
2019-02-20T02:12:37.334Z,22.22
2019-02-20T02:15:19.998Z,23.52
2019-02-20T02:17:48.071Z,21.33
2019-02-20T02:20:22.543Z,21.45
2019-02-20T02:22:56.825Z,21.82
2019-02-20T02:25:31.313Z,22.37
2019-02-20T02:28:05.843Z,22.02
2019-02-20T02:30:40.314Z,23.00
2019-02-20T02:33:14.994Z,21.68
2019-02-20T02:35:49.630Z,24.12
2019-02-20T02:40:57.641Z,29.75
2019-02-20T02:43:32.020Z,28.15
2019-02-20T02:46:06.717Z,27.32
2019-02-20T02:48:41.048Z,28.87
2019-02-20T02:51:15.687Z,29.23
2019-02-20T02:56:23.640Z,29.00
2019-02-20T02:58:57.715Z,27.37
2019-02-20T03:01:31.880Z,25.48
2019-02-20T03:04:06.474Z,23.70
2019-02-20T03:06:41.088Z,22.45
2019-02-20T03:09:15.801Z,23.70
2019-02-20T03:11:50.316Z,23.92
2019-02-20T03:14:24.664Z,25.35
2019-02-20T03:19:33.004Z,25.77
2019-02-20T03:22:07.409Z,22.00
2019-02-20T03:24:41.835Z,22.82
2019-02-20T03:27:16.075Z,24.12
2019-02-20T03:29:50.545Z,25.05
2019-02-20T03:32:25.325Z,24.90
2019-02-20T03:34:59.828Z,23.67
2019-02-20T03:37:34.516Z,20.90
2019-02-20T03:40:08.896Z,21.52
2019-02-20T03:42:43.321Z,22.13
2019-02-20T03:45:17.783Z,20.12
2019-02-20T03:47:52.511Z,20.65
2019-02-20T03:50:26.854Z,19.57
2019-02-20T03:53:01.322Z,20.37
2019-02-20T03:55:35.980Z,19.23
2019-02-20T03:58:10.316Z,19.35
2019-02-20T04:00:44.606Z,19.92
2019-02-20T04:03:19.113Z,20.97
2019-02-20T04:05:53.667Z,20.02
2019-02-20T04:11:01.598Z,24.00
2019-02-20T04:16:09.641Z,23.02
2019-02-20T04:21:18.776Z,23.87
2019-02-20T04:24:01.982Z,26.50
2019-02-20T04:26:32.951Z,26.37
2019-02-20T04:29:07.323Z,25.77
2019-02-20T04:31:41.610Z,27.05
2019-02-20T04:36:49.661Z,24.65
2019-02-20T04:41:57.824Z,29.48
2019-02-20T04:44:32.314Z,29.50
2019-02-20T04:47:06.895Z,29.52
2019-02-20T04:49:41.824Z,30.00
2019-02-20T04:52:17.335Z,30.17
2019-02-20T04:54:52.825Z,29.42
2019-02-20T04:57:27.179Z,28.67
2019-02-20T05:00:04.027Z,27.58
2019-02-20T05:02:40.525Z,28.00
2019-02-20T05:05:14.900Z,27.05
2019-02-20T05:07:49.322Z,26.93
2019-02-20T05:10:23.846Z,28.98
2019-02-20T05:12:58.316Z,31.12
2019-02-20T05:15:32.799Z,30.90
2019-02-20T05:18:07.313Z,30.37
2019-02-20T05:20:42.789Z,33.23
2019-02-20T05:23:17.471Z,32.98
2019-02-20T05:25:52.469Z,32.17
2019-02-20T05:31:01.134Z,29.12
2019-02-20T05:33:35.704Z,29.12
2019-02-20T05:36:10.341Z,27.58
2019-02-20T05:38:44.841Z,27.58
2019-02-20T05:41:19.326Z,27.02
2019-02-20T05:43:53.649Z,26.73
2019-02-20T05:46:28.046Z,26.73
2019-02-20T05:49:02.589Z,26.45
2019-02-20T05:51:37.113Z,25.25
2019-02-20T05:54:11.541Z,24.50
2019-02-20T05:56:45.975Z,24.52
2019-02-20T05:59:20.333Z,20.55
2019-02-20T06:01:54.878Z,20.10
2019-02-20T06:04:29.453Z,19.40
2019-02-20T06:07:03.835Z,18.87
2019-02-20T06:09:38.530Z,18.67
2019-02-20T06:12:13.523Z,18.90
2019-02-20T06:14:48.148Z,18.35
2019-02-20T06:17:22.851Z,17.77
2019-02-20T06:19:57.599Z,18.65
2019-02-20T06:27:41.328Z,18.48
2019-02-20T06:30:16.787Z,19.42
2019-02-20T06:32:51.498Z,19.55
2019-02-20T06:35:25.935Z,19.52
2019-02-20T06:38:00.560Z,19.35
2019-02-20T06:43:09.803Z,21.55
2019-02-20T06:45:44.419Z,21.33
2019-02-20T06:48:18.961Z,21.80
2019-02-20T06:50:53.313Z,21.90
2019-02-20T06:53:27.637Z,23.35
2019-02-20T06:58:36.124Z,23.62
2019-02-20T07:01:10.771Z,21.15
2019-02-20T07:03:45.170Z,21.82
2019-02-20T07:07:15.544Z,19.85
2019-02-20T07:14:03.125Z,18.95
2019-02-20T07:17:27.132Z,19.45
2019-02-20T07:21:42.005Z,19.52
2019-02-20T07:25:40.941Z,19.02
2019-02-20T07:29:18.939Z,19.07
2019-02-20T07:31:53.729Z,18.77
2019-02-20T07:34:28.348Z,18.60
2019-02-20T07:37:02.813Z,18.62
2019-02-20T07:39:37.317Z,19.32
2019-02-20T07:42:12.043Z,19.25
2019-02-20T07:44:46.512Z,19.30
2019-02-20T07:47:21.061Z,18.92
2019-02-20T07:49:55.605Z,19.07
2019-02-20T07:55:12.954Z,21.05
2019-02-20T07:57:43.516Z,19.70
2019-02-20T08:00:18.277Z,20.32
2019-02-20T08:02:53.321Z,19.27
2019-02-20T08:05:28.352Z,18.87
2019-02-20T08:08:03.689Z,19.57
2019-02-20T08:13:14.577Z,21.77
2019-02-20T08:18:25.321Z,20.45
2019-02-20T08:21:01.529Z,19.40
2019-02-20T08:23:36.311Z,19.70
2019-02-20T08:26:10.628Z,19.25
2019-02-20T08:31:18.993Z,20.30
2019-02-20T08:33:54.034Z,20.65
2019-02-20T08:36:28.641Z,20.85
2019-02-20T08:41:40.864Z,19.57
2019-02-20T08:44:27.684Z,17.67
2019-02-20T08:49:35.957Z,15.68
2019-02-20T08:52:10.519Z,15.45
2019-02-20T08:54:46.044Z,16.35
2019-02-20T08:57:20.656Z,15.32
2019-02-20T08:59:55.154Z,15.15
2019-02-20T09:02:29.903Z,16.17
2019-02-20T09:05:05.852Z,15.75
2019-02-20T09:07:41.576Z,15.98
2019-02-20T09:12:51.748Z,15.43
2019-02-20T09:15:26.793Z,14.10
2019-02-20T09:18:01.138Z,16.42
2019-02-20T09:20:35.552Z,15.75
2019-02-20T09:25:44.495Z,20.62
2019-02-20T09:30:54.323Z,19.70
2019-02-20T09:33:35.919Z,21.37
2019-02-20T09:36:11.494Z,17.77
2019-02-20T09:38:46.104Z,17.62
2019-02-20T09:41:20.633Z,18.00
2019-02-20T09:43:55.114Z,17.05
2019-02-20T09:46:29.639Z,18.40
2019-02-20T09:49:04.425Z,18.45
2019-02-20T09:51:38.934Z,19.25
2019-02-20T09:54:13.562Z,19.35
2019-02-20T09:59:23.317Z,17.32
2019-02-20T10:01:57.782Z,15.90
2019-02-20T10:04:32.584Z,15.63
2019-02-20T10:12:14.805Z,16.45
2019-02-20T10:14:49.532Z,17.40
2019-02-20T10:17:24.057Z,16.30
2019-02-20T10:19:58.985Z,17.45
2019-02-20T10:22:33.622Z,16.37
2019-02-20T10:25:09.600Z,17.20
2019-02-20T10:27:44.149Z,18.35
2019-02-20T10:30:18.833Z,17.32
2019-02-20T10:32:53.540Z,17.90
2019-02-20T10:38:01.784Z,15.93
2019-02-20T10:40:38.875Z,15.60
2019-02-20T10:43:13.604Z,17.20
2019-02-20T10:48:25.791Z,16.12
2019-02-20T10:51:01.151Z,16.35
2019-02-20T10:53:37.430Z,16.27
2019-02-20T10:56:12.452Z,15.23
2019-02-20T11:01:22.859Z,13.88
2019-02-20T11:03:58.582Z,15.65
2019-02-20T11:06:33.930Z,13.75
2019-02-20T11:09:10.682Z,14.83
2019-02-20T11:11:47.347Z,15.05
2019-02-20T11:14:22.772Z,13.93
2019-02-20T11:16:58.875Z,12.80
2019-02-20T11:19:34.330Z,14.33
2019-02-20T11:22:09.295Z,13.70
2019-02-20T11:24:44.093Z,12.80
2019-02-20T11:27:19.483Z,11.80
2019-02-20T11:29:54.297Z,10.55
2019-02-20T11:32:28.991Z,12.50
2019-02-20T11:35:05.297Z,11.80
2019-02-20T11:37:39.877Z,9.40
2019-02-20T11:40:14.780Z,10.43
2019-02-20T11:42:49.554Z,9.45
2019-02-20T11:47:59.570Z,8.98
2019-02-20T11:53:08.124Z,7.70
2019-02-20T11:55:42.770Z,7.67
2019-02-20T11:58:17.600Z,7.95
2019-02-20T12:03:26.826Z,7.97
2019-02-20T12:06:01.567Z,7.25
2019-02-20T12:08:36.473Z,6.50
2019-02-20T12:11:13.630Z,7.50
2019-02-20T12:16:23.109Z,7.50
2019-02-20T12:18:57.673Z,7.05
2019-02-20T12:21:32.900Z,7.67
2019-02-20T12:24:07.637Z,7.20
2019-02-20T12:26:42.155Z,7.60
2019-02-20T12:29:16.636Z,7.60
2019-02-20T12:34:27.566Z,9.98
2019-02-20T12:37:02.008Z,10.00
2019-02-20T12:39:36.614Z,10.88
2019-02-20T12:42:12.965Z,10.10
2019-02-20T12:44:47.823Z,9.13
2019-02-20T12:47:22.322Z,7.75
2019-02-20T12:49:58.695Z,8.45
2019-02-20T12:52:33.316Z,8.20
2019-02-20T12:55:08.353Z,6.92
2019-02-20T12:57:44.311Z,7.00
2019-02-20T13:00:20.719Z,8.10
2019-02-20T13:02:55.601Z,7.62
2019-02-20T13:05:30.486Z,7.87
2019-02-20T13:08:05.057Z,7.12
2019-02-20T13:10:39.818Z,7.37
2019-02-20T13:13:14.565Z,7.80
2019-02-20T13:18:23.093Z,7.42
2019-02-20T13:20:59.228Z,8.30
2019-02-20T13:23:34.120Z,7.87
2019-02-20T13:26:09.048Z,7.40
2019-02-20T13:28:43.824Z,7.15
2019-02-20T13:31:18.533Z,7.28
2019-02-20T13:33:53.006Z,7.10
2019-02-20T13:36:27.796Z,6.90
2019-02-20T13:39:02.617Z,7.17
2019-02-20T13:41:38.761Z,7.70
2019-02-20T13:44:13.336Z,7.70
2019-02-20T13:46:48.099Z,7.25
2019-02-20T13:49:22.788Z,9.60
2019-02-20T13:51:57.345Z,8.20
2019-02-20T13:54:31.775Z,8.30
2019-02-20T13:57:06.859Z,8.40
2019-02-20T13:59:41.894Z,9.63
2019-02-20T14:02:16.786Z,6.65
2019-02-20T14:04:51.325Z,7.08
2019-02-20T14:07:26.158Z,6.90
2019-02-20T14:10:00.545Z,7.00
2019-02-20T14:15:11.018Z,6.92
2019-02-20T14:17:45.698Z,6.15
2019-02-20T14:20:20.132Z,5.67
2019-02-20T14:22:54.543Z,6.22
2019-02-20T14:25:29.309Z,6.58
2019-02-20T14:28:04.334Z,6.40
2019-02-20T14:30:39.013Z,6.60
2019-02-20T14:33:13.874Z,6.90
2019-02-20T14:35:48.385Z,7.15
2019-02-20T14:38:23.000Z,6.35
2019-02-20T14:40:57.618Z,6.70
2019-02-20T14:43:34.889Z,6.33
2019-02-20T14:46:09.624Z,7.30
2019-02-20T14:51:18.530Z,8.08
2019-02-20T14:53:54.347Z,7.65
2019-02-20T14:56:29.044Z,7.58
2019-02-20T14:59:03.815Z,7.75
2019-02-20T15:01:39.754Z,7.20
2019-02-20T15:04:14.729Z,7.45
2019-02-20T15:06:49.470Z,7.62
2019-02-20T15:09:24.057Z,7.92
2019-02-20T15:11:58.824Z,7.17
2019-02-20T15:14:34.673Z,7.58
2019-02-20T15:17:09.612Z,7.50
2019-02-20T15:22:18.492Z,9.25
2019-02-20T15:24:53.269Z,9.28
2019-02-20T15:27:28.909Z,9.10
2019-02-20T15:30:04.845Z,8.85
2019-02-20T15:32:39.576Z,9.05
2019-02-20T15:35:14.671Z,8.75
2019-02-20T15:42:56.982Z,8.43
2019-02-20T15:45:31.637Z,9.33
2019-02-20T15:48:06.131Z,9.18
2019-02-20T15:50:40.818Z,8.90
2019-02-20T15:53:16.929Z,9.25
2019-02-20T15:55:51.715Z,9.10
2019-02-20T15:58:27.313Z,8.58
2019-02-20T16:01:01.837Z,9.18
2019-02-20T16:03:37.105Z,9.33
2019-02-20T16:06:11.877Z,8.68
2019-02-20T16:08:46.975Z,9.25
2019-02-20T16:11:21.555Z,8.50
2019-02-20T16:13:56.516Z,8.88
2019-02-20T16:19:09.015Z,8.43
2019-02-20T16:21:43.916Z,9.48
2019-02-20T16:30:32.728Z,8.58
2019-02-20T16:33:07.315Z,8.63
2019-02-20T16:35:41.979Z,9.13
2019-02-20T16:38:16.825Z,8.98
2019-02-20T16:40:51.529Z,9.25
2019-02-20T16:48:33.535Z,9.88
2019-02-20T16:51:08.290Z,9.38
2019-02-20T16:53:43.310Z,9.80
2019-02-20T16:56:17.790Z,9.33
2019-02-20T16:58:52.421Z,9.03
2019-02-20T17:01:27.013Z,10.63
2019-02-20T17:04:01.543Z,10.90
2019-02-20T17:06:36.094Z,9.50
2019-02-20T17:09:10.719Z,10.40
2019-02-20T17:11:45.635Z,9.70
2019-02-20T17:14:20.641Z,9.45
2019-02-20T17:19:29.664Z,10.70
2019-02-20T17:22:04.310Z,10.40
2019-02-20T17:24:39.017Z,10.68
2019-02-20T17:27:13.709Z,11.10
2019-02-20T17:29:48.540Z,11.40
2019-02-20T17:34:57.865Z,11.08
2019-02-20T17:37:32.882Z,11.22
2019-02-20T17:40:08.534Z,12.03
2019-02-20T17:42:43.314Z,11.12
2019-02-20T17:45:17.877Z,11.50
2019-02-20T17:47:54.168Z,14.05
2019-02-20T17:50:28.961Z,15.28
2019-02-20T17:53:03.830Z,16.17
2019-02-20T17:55:38.546Z,20.82
2019-02-20T17:58:15.399Z,13.55
2019-02-20T18:03:24.560Z,12.75
2019-02-20T18:08:33.545Z,13.70
2019-02-20T18:11:08.118Z,12.20
2019-02-20T18:13:42.868Z,11.38
2019-02-20T18:18:38.165Z,11.25
2019-02-20T18:21:15.124Z,11.95
2019-02-20T18:23:49.997Z,12.30
2019-02-20T18:26:24.662Z,11.80
2019-02-20T18:28:59.455Z,12.05
2019-02-20T18:31:34.056Z,12.43
2019-02-20T18:34:08.866Z,12.93
2019-02-20T18:36:43.642Z,15.38
2019-02-20T18:39:18.341Z,15.68
2019-02-20T18:41:53.112Z,13.95
2019-02-20T18:44:27.925Z,13.08
2019-02-20T18:47:02.665Z,12.33
2019-02-20T18:49:38.909Z,12.70
2019-02-20T18:52:13.567Z,12.37
2019-02-20T18:54:48.692Z,12.75
2019-02-20T18:57:24.007Z,11.38
2019-02-20T18:59:58.529Z,12.07
2019-02-20T19:02:34.089Z,11.93
2019-02-20T19:05:09.831Z,12.05
2019-02-20T19:07:44.746Z,13.48
2019-02-20T19:10:30.667Z,15.58
2019-02-20T19:13:54.875Z,14.40
2019-02-20T19:18:01.572Z,14.33
2019-02-20T19:24:33.550Z,13.53
2019-02-20T19:28:00.842Z,13.03
2019-02-20T19:31:38.632Z,13.45
2019-02-20T19:38:43.845Z,13.32
2019-02-20T19:42:38.321Z,14.13
2019-02-20T19:46:25.957Z,14.93
2019-02-20T19:50:14.715Z,13.93
2019-02-20T19:54:42.160Z,13.65
2019-02-20T19:58:25.863Z,21.48
2019-02-20T20:02:12.854Z,38.15
2019-02-20T20:05:48.885Z,29.85
2019-02-20T20:09:38.804Z,21.73
2019-02-20T20:13:09.995Z,17.55
2019-02-20T20:16:51.929Z,16.48
2019-02-20T20:20:22.991Z,13.48
2019-02-20T20:23:59.732Z,16.97
2019-02-20T20:27:50.970Z,48.20
2019-02-20T20:31:14.353Z,17.65
2019-02-20T20:35:27.786Z,29.67
2019-02-20T20:39:41.055Z,19.00
2019-02-20T20:43:27.186Z,19.17
2019-02-20T20:46:51.513Z,14.93
2019-02-20T20:50:33.212Z,20.72
2019-02-20T20:54:28.733Z,17.37
2019-02-20T20:58:30.789Z,18.52
2019-02-20T21:02:06.364Z,16.87
2019-02-20T21:05:44.676Z,17.73
2019-02-20T21:09:13.539Z,16.95
2019-02-20T21:12:53.627Z,16.50
2019-02-20T21:16:41.516Z,16.77
2019-02-20T21:20:10.470Z,16.45
2019-02-20T21:24:05.111Z,15.72
2019-02-20T21:27:28.439Z,17.20
2019-02-20T21:31:09.557Z,18.80
2019-02-20T21:38:49.015Z,17.07
2019-02-20T21:42:52.128Z,17.00
2019-02-20T21:46:30.542Z,16.35
2019-02-20T21:49:59.328Z,16.67
2019-02-20T21:54:03.927Z,18.48
2019-02-20T21:57:32.454Z,19.23
2019-02-20T22:01:08.129Z,16.90
2019-02-20T22:05:14.328Z,16.93
2019-02-20T22:09:38.022Z,17.35
2019-02-20T22:13:50.311Z,15.98
2019-02-20T22:17:29.053Z,15.83
2019-02-20T22:20:52.316Z,20.37
2019-02-20T22:24:24.907Z,18.37
2019-02-20T22:28:21.406Z,19.48
2019-02-20T22:32:48.121Z,22.50
2019-02-20T22:36:46.558Z,25.97
2019-02-20T22:40:07.815Z,21.30
2019-02-20T22:43:50.122Z,18.75
2019-02-20T22:47:45.523Z,20.43
2019-02-20T22:51:26.616Z,19.90
2019-02-20T22:55:24.104Z,20.57
2019-02-20T22:59:06.466Z,20.27
2019-02-20T23:03:13.302Z,19.42
2019-02-20T23:07:02.866Z,19.25
2019-02-20T23:10:47.655Z,17.07
2019-02-20T23:14:36.658Z,19.30
2019-02-20T23:19:45.104Z,17.80
2019-02-20T23:22:19.916Z,19.90
2019-02-20T23:24:55.522Z,19.35
2019-02-20T23:27:30.021Z,19.73
2019-02-20T23:30:12.914Z,18.65
2019-02-20T23:32:43.449Z,19.45
2019-02-20T23:35:17.780Z,18.80
2019-02-20T23:37:52.130Z,18.75
2019-02-20T23:40:27.763Z,19.20
2019-02-20T23:43:02.637Z,18.85
2019-02-20T23:50:45.081Z,19.42
2019-02-20T23:53:19.545Z,20.92
2019-02-20T23:55:53.919Z,19.37
2019-02-20T23:58:31.793Z,19.48
